Date,TemperatureHighF,TemperatureAvgF,TemperatureLowF,DewpointHighF,DewpointAvgF,DewpointLowF,HumidityHigh,HumidityAvg,HumidityLow,PressureMaxIn,PressureMinIn,WindSpeedMaxMPH,WindSpeedAvgMPH,GustSpeedMaxMPH,PrecipitationSumIn
2013-1-1,40.3,32.6,0.0,35.3,30.1,0.0,98,90,71,30.56,30.41,6,2,6,0.23
2013-1-2,46.0,32.3,23.5,36.3,27.3,21.6,98,83,54,30.41,30.27,4,1,4,0.08
2013-1-3,43.3,33.1,19.4,36.5,27.4,18.2,98,81,50,30.27,30.18,18,2,18,0.13
2013-1-4,47.3,41.0,37.4,43.2,38.4,36.1,98,91,77,30.41,30.27,6,1,7,24.13
2013-1-5,39.9,37.3,33.8,37.3,33.3,29.0,98,86,67,30.27,30.18,6,1,6,24.13
2013-1-7,51.4,46.1,0.0,49.3,44.9,0.0,98,95,82,30.30,30.03,11,3,11,0.13
2013-1-8,49.8,48.3,0.0,49.3,47.8,0.0,98,97,98,30.12,29.94,15,5,15,0.37
2013-1-9,38.1,37.6,37.4,37.6,36.8,36.4,98,97,96,29.91,29.82,6,1,6,0.09
2013-1-10,41.7,35.2,0.0,38.7,33.6,0.0,98,93,73,30.18,30.12,6,1,6,25.95
2013-1-11,39.9,31.5,23.9,33.8,21.9,14.8,98,70,41,30.39,0.00,12,3,12,25.95
2013-1-12,38.5,28.3,0.0,30.2,21.9,0.0,98,78,48,30.50,30.41,11,2,11,0.00
2013-1-13,37.8,25.1,17.4,31.4,20.1,15.2,98,83,48,30.56,30.47,8,1,8,0.00
2013-1-14,32.5,28.2,20.5,31.1,27.2,18.3,98,96,89,30.65,30.53,7,2,7,0.00
2013-1-15,36.1,32.8,28.6,33.4,31.5,28.1,98,95,88,30.77,30.71,8,2,8,0.04
2013-1-16,33.6,31.3,30.0,33.1,30.8,29.5,98,98,97,30.74,0.00,6,2,6,0.04
2013-1-17,34.5,30.8,0.0,33.5,30.0,0.0,98,96,92,30.53,30.39,5,1,5,0.00
2013-1-18,52.9,34.6,24.4,38.9,30.2,24.0,98,85,51,30.39,30.30,5,1,5,0.00
2013-1-19,36.1,31.9,28.4,33.7,30.7,27.9,98,95,87,30.44,30.36,7,2,8,0.00
2013-1-20,36.1,31.7,27.9,33.3,30.3,27.4,98,95,84,30.47,30.30,7,2,7,25.99
2013-1-21,47.8,33.0,24.1,32.1,26.3,22.6,97,78,50,30.27,30.18,4,1,4,25.99
2013-1-22,43.3,34.2,21.9,32.2,26.7,21.2,98,76,49,30.18,29.97,3,1,20,0.00
2013-1-23,36.3,34.7,33.3,35.8,31.9,25.6,98,90,73,30.21,29.94,6,2,6,0.13
2013-1-24,46.6,40.1,32.5,41.0,36.6,32.0,98,88,66,30.30,30.12,10,2,10,0.13
2013-1-25,54.5,43.5,0.0,48.2,39.4,0.0,98,86,59,30.15,30.00,10,3,10,0.04
2013-1-26,47.1,41.1,35.6,44.1,37.8,34.9,98,88,66,30.09,30.00,8,2,8,0.04
2013-1-27,37.8,36.7,36.1,37.2,36.2,35.6,98,98,98,30.12,30.09,5,2,5,0.05
2013-1-29,49.1,45.1,42.4,45.5,43.3,40.0,98,93,76,30.50,30.33,12,2,12,27.24
2013-1-30,47.3,45.7,43.0,46.8,45.1,42.5,98,98,98,30.50,30.47,4,1,4,27.24
2013-2-1,55.2,46.1,39.0,48.2,41.0,36.2,98,84,53,30.50,30.41,11,2,11,0.38
2013-2-3,46.4,42.6,37.9,45.0,41.3,37.4,98,95,84,30.41,30.33,6,1,6,0.00
2013-2-4,54.1,47.0,40.3,45.0,40.0,34.9,98,78,52,30.30,30.00,8,2,8,0.00
2013-2-5,53.4,44.8,40.5,45.7,40.7,37.0,98,87,60,30.06,29.94,15,4,15,0.37
2013-2-6,47.3,43.5,40.1,42.8,40.7,38.2,98,90,73,30.18,29.88,15,3,15,0.37
2013-2-11,44.1,43.4,42.4,40.5,39.0,36.6,90,85,80,30.44,30.44,6,2,6,0.00
2013-2-12,53.1,48.0,41.5,47.4,42.8,39.6,98,83,66,30.53,30.44,11,3,11,0.00
2013-2-13,51.1,45.9,36.1,40.9,35.9,32.8,93,69,54,30.56,30.50,7,2,7,0.00
2013-2-15,57.9,47.7,36.1,43.7,39.5,35.1,98,76,48,30.56,30.30,11,4,11,28.61
2013-2-17,49.8,44.2,38.8,40.3,35.0,29.8,98,71,54,30.36,0.00,8,2,8,28.61
2013-2-18,41.0,38.3,34.3,35.5,31.7,28.0,98,78,63,30.09,29.85,11,2,72,0.00
2013-2-19,54.0,43.1,34.5,40.7,32.5,26.2,98,70,38,30.03,29.82,15,4,15,0.00
2013-2-20,46.8,39.9,31.5,41.9,35.6,30.6,98,86,60,30.18,30.06,12,2,12,28.81
2013-2-21,40.6,39.5,0.0,40.1,39.0,0.0,98,96,98,30.24,30.15,8,3,8,28.81
2013-2-22,47.3,40.1,0.0,45.9,38.5,0.0,98,93,73,30.03,29.88,21,5,21,1.21
2013-2-23,50.4,41.6,33.3,41.2,33.2,27.4,98,74,43,30.47,30.27,18,3,18,1.21
2013-2-24,48.2,43.8,36.7,36.5,32.1,29.5,98,64,52,30.44,30.18,15,5,15,0.00
2013-2-25,50.4,40.6,0.0,39.3,33.1,0.0,98,75,47,30.41,30.18,18,3,18,0.42
2013-2-26,50.9,41.1,0.0,40.7,31.3,0.0,98,69,46,30.47,30.30,15,4,15,0.42
2013-2-27,43.0,42.4,42.1,41.5,39.5,38.4,95,90,87,30.33,30.33,3,1,3,0.00
2013-2-28,53.4,50.6,0.0,51.6,49.1,0.0,98,93,90,30.47,30.30,12,3,12,0.04
2013-3-1,59.7,54.1,50.0,52.5,49.3,44.9,98,84,63,30.53,0.00,12,4,12,0.04
2013-3-2,43.5,40.6,38.3,38.7,36.5,34.4,94,85,80,30.33,30.27,13,3,13,0.00
2013-3-3,55.2,45.1,33.8,36.8,30.0,24.5,96,59,36,30.39,30.30,19,4,19,0.00
2013-3-4,59.5,47.2,0.0,30.9,25.8,0.0,83,46,25,30.27,30.00,13,3,13,0.00
2013-3-5,47.5,43.5,0.0,39.0,35.7,0.0,96,73,64,29.94,29.82,5,2,5,0.17
2013-3-6,0.0,0.0,0.0,0.0,0.0,0.0,0,0,100,29.85,29.65,7,2,7,0.16
2013-3-9,37.2,31.9,0.0,34.1,29.5,0.0,95,84,88,30.59,30.53,4,2,4,0.16
2013-3-10,46.9,42.6,34.9,41.8,40.0,34.1,98,91,78,30.59,30.50,4,1,4,0.04
2013-3-11,55.9,49.2,0.0,47.3,43.5,0.0,98,81,59,30.50,30.30,11,2,11,0.04
2013-3-12,53.6,51.3,48.9,49.0,46.6,43.7,94,84,75,30.30,30.21,13,4,13,0.04
2013-3-14,58.1,51.2,46.6,52.3,43.7,36.4,98,77,53,30.27,30.18,15,3,15,0.05
2013-3-15,62.2,55.1,46.0,53.0,42.3,38.4,98,64,44,30.33,30.24,13,4,13,0.05
2013-3-17,52.3,42.1,33.6,38.8,33.4,28.3,98,73,44,30.39,30.30,14,3,14,0.05
2013-3-18,58.6,44.7,0.0,43.9,32.1,0.0,98,64,34,30.36,30.27,11,3,11,0.08
2013-3-19,50.0,44.2,31.8,43.7,37.0,29.9,98,78,48,30.15,29.79,8,1,8,0.12
2013-3-20,50.5,44.9,34.7,45.8,38.7,31.7,92,79,69,30.09,29.59,18,5,18,0.29
2013-3-21,53.2,42.1,32.5,42.0,31.5,23.1,98,69,37,30.36,30.27,20,4,20,0.29
2013-3-22,51.8,40.8,29.5,40.6,29.7,23.8,98,67,39,30.44,0.00,14,3,14,0.08
2013-3-23,55.2,42.6,30.4,38.4,27.6,19.0,97,60,29,30.50,30.36,8,2,8,0.08
2013-3-24,61.3,47.6,33.1,35.7,30.0,26.0,96,54,32,30.36,30.18,12,3,12,0.00
2013-3-25,64.6,53.2,34.9,40.1,33.1,27.2,96,50,29,30.18,30.00,10,3,10,0.00
2013-3-26,65.1,54.8,42.3,44.8,39.2,33.5,93,59,34,30.12,30.03,9,2,9,0.00
2013-3-27,68.0,56.8,46.6,50.7,40.9,31.5,96,60,29,30.06,30.00,57,2,57,0.00
2013-3-28,66.4,54.6,0.0,53.0,43.6,0.0,96,69,36,30.27,30.12,11,2,11,0.00
2013-3-29,71.2,58.1,44.8,50.4,41.2,35.3,98,57,32,30.36,30.27,12,3,12,0.00
2013-3-30,71.1,60.2,36.5,48.6,39.3,34.9,98,49,32,30.33,30.12,17,5,17,0.00
2013-3-31,77.7,69.2,53.2,45.4,39.6,33.7,67,36,24,30.12,0.00,10,3,10,0.00
2013-4-1,41.7,41.7,41.7,39.6,39.6,39.6,92,92,92,29.32,29.32,2,2,4,0.00
2013-4-2,62.2,54.7,45.5,48.3,42.8,38.8,92,66,44,30.33,30.24,12,3,12,0.00
2013-4-3,68.5,53.3,39.9,47.5,41.9,37.6,97,70,37,30.30,30.03,6,2,6,0.00
2013-4-4,59.2,53.2,48.0,54.8,49.9,45.8,96,89,64,29.91,29.79,16,3,16,34.04
2013-4-5,60.8,51.9,47.3,53.5,47.9,42.6,98,87,63,30.06,29.91,14,3,14,0.41
2013-4-6,58.5,47.9,43.3,46.6,41.8,35.4,97,80,49,30.09,29.91,17,3,17,0.45
2013-4-7,53.8,44.9,0.0,46.0,39.0,0.0,94,80,58,29.79,29.32,17,3,17,0.25
2013-4-8,56.7,46.4,38.3,44.6,38.3,32.3,98,76,41,29.91,29.56,13,3,13,0.00
2013-4-9,57.0,40.1,34.0,45.3,35.4,32.1,98,86,45,29.97,29.88,10,1,13,0.00
2013-4-10,60.4,50.5,45.1,54.9,40.9,34.1,98,70,42,29.91,29.68,17,4,17,0.21
2013-4-11,63.5,46.5,34.3,45.3,34.1,26.4,98,66,30,29.97,29.82,17,3,17,0.00
2013-4-12,50.7,39.9,30.2,43.7,33.2,27.5,98,78,52,29.85,29.41,13,2,13,0.08
2013-4-13,54.1,39.0,34.0,40.0,33.5,28.5,98,82,46,29.68,29.47,17,3,17,0.41
2013-4-14,57.4,38.9,33.3,46.5,35.1,27.5,98,88,39,29.68,29.56,11,2,11,0.62
2013-4-15,59.5,37.2,29.7,44.5,30.5,25.5,98,82,31,29.82,29.59,23,2,23,0.62
2013-4-16,61.3,39.6,32.5,42.1,32.5,26.4,98,80,29,30.03,29.79,19,2,19,0.83
2013-4-17,65.8,37.5,29.5,43.4,30.7,26.8,96,80,34,30.12,30.00,10,2,10,0.83
2013-4-18,55.8,44.0,40.6,47.5,38.2,34.4,98,81,52,30.12,29.91,10,2,10,0.83
2013-4-19,61.3,49.4,47.5,53.2,46.6,38.8,98,91,49,29.91,29.71,15,3,15,0.21
2013-4-20,61.2,47.3,41.0,49.0,43.6,36.5,98,88,43,29.97,29.88,10,2,10,1.20
2013-4-21,62.6,44.7,41.0,46.1,40.7,30.4,98,89,35,29.97,29.88,15,1,15,1.20
2013-4-22,64.2,42.5,35.4,39.0,34.1,20.5,98,79,25,30.12,29.97,18,4,18,0.00
2013-4-23,66.4,41.1,28.2,37.3,26.9,18.1,98,65,23,30.06,29.79,18,3,18,0.00
2013-4-24,72.5,48.2,32.2,40.5,30.7,23.5,98,57,22,29.94,29.65,18,3,18,0.00
2013-4-25,78.1,57.4,35.2,43.7,36.3,29.9,98,52,22,29.79,29.65,12,3,12,0.00
2013-4-26,80.1,53.6,35.4,45.9,38.7,26.4,98,68,20,29.91,29.79,8,2,8,0.00
2013-4-27,62.1,43.8,36.5,49.1,38.2,34.1,98,83,37,29.91,29.82,12,2,12,1.20
2013-4-28,65.8,49.5,46.4,52.0,44.1,32.2,98,85,33,29.88,29.65,17,2,17,1.24
2013-4-29,59.9,46.9,39.2,48.2,38.6,24.6,98,76,32,29.82,29.62,24,4,24,1.24
2013-4-30,64.4,41.2,32.9,43.9,32.4,23.1,98,77,25,30.06,29.82,19,3,19,0.08
2013-5-1,68.5,49.2,27.5,41.2,29.3,21.4,98,55,23,30.18,30.06,13,4,13,0.00
2013-5-2,74.8,50.4,37.4,37.8,31.1,23.6,84,51,22,30.15,29.94,17,4,17,0.00
2013-5-3,74.8,60.8,48.2,41.8,34.1,27.8,59,38,23,30.00,29.82,20,7,20,0.00
2013-5-4,80.4,57.2,46.4,46.1,38.7,28.9,84,54,21,29.85,29.59,25,4,25,0.00
2013-5-5,85.1,67.8,44.1,44.4,37.1,29.9,89,38,18,29.59,29.35,18,5,18,0.00
2013-5-6,89.8,53.4,42.3,49.5,41.1,36.3,95,70,19,29.50,29.41,12,1,12,0.00
2013-5-7,78.4,56.8,44.6,48.9,46.4,42.5,98,73,32,29.62,29.47,12,2,12,0.00
2013-5-8,75.4,58.1,48.6,51.2,47.4,43.2,96,72,34,29.79,29.65,13,2,13,0.00
2013-5-9,77.4,53.2,43.2,51.4,46.3,39.6,98,82,28,29.88,29.71,15,3,15,0.00
2013-5-10,86.0,60.8,42.4,54.9,46.9,41.7,98,69,23,29.88,29.76,13,2,13,0.00
2013-5-11,90.9,59.8,51.3,55.2,49.1,44.8,94,73,22,29.88,29.68,12,2,12,0.00
2013-5-12,78.4,63.7,56.7,58.5,52.2,40.1,96,69,31,29.82,29.68,17,2,17,0.00
2013-5-13,67.5,56.0,43.5,56.1,52.1,32.5,98,89,39,29.85,29.68,23,2,90,0.04
2013-5-14,73.6,49.6,37.4,47.2,38.5,31.2,98,73,26,29.91,29.74,8,2,8,1.36
2013-5-15,57.2,42.9,37.4,48.0,39.8,36.8,98,90,48,29.79,29.71,6,1,6,0.00
2013-5-16,77.2,55.8,44.8,57.4,47.6,39.1,98,79,31,29.68,29.56,14,2,14,0.04
2013-5-17,70.0,51.7,44.4,53.4,47.8,37.3,98,89,33,29.76,29.65,13,1,13,0.21
2013-5-18,63.1,51.1,43.3,51.3,46.0,39.8,98,85,44,29.94,29.74,7,1,7,0.21
2013-5-19,73.2,53.3,48.9,51.1,45.3,36.3,98,78,30,30.09,29.94,12,3,12,0.00
2013-5-20,75.6,49.8,41.2,46.2,43.1,38.7,98,82,31,30.03,29.59,14,2,14,0.00
2013-5-21,62.2,47.2,43.3,46.1,43.1,32.8,98,87,40,29.59,29.47,18,2,18,0.33
2013-5-22,52.0,44.5,41.2,45.0,42.0,39.5,98,91,73,29.59,29.53,10,3,10,0.46
2013-5-23,50.4,43.2,37.8,48.2,42.3,37.2,98,97,89,29.65,29.59,11,1,11,1.07
2013-5-24,62.2,49.2,44.2,51.6,45.3,41.8,98,88,56,29.76,29.59,13,2,13,1.07
2013-5-25,0.0,0.0,0.0,0.0,0.0,0.0,0,0,100,29.76,29.68,10,2,10,0.13
2013-5-26,0.0,0.0,0.0,0.0,0.0,0.0,0,0,100,29.71,29.62,13,3,13,0.08
2013-5-27,0.0,0.0,0.0,0.0,0.0,0.0,0,0,100,29.68,29.38,14,2,14,0.37
2013-5-28,70.7,12.4,0.0,45.9,8.1,0.0,41,7,41,29.62,29.50,17,3,17,0.37
2013-5-29,67.5,15.5,0.0,50.5,11.4,0.0,88,15,41,29.68,29.35,14,2,14,0.50
2013-5-30,65.8,48.9,43.7,50.5,43.8,38.6,98,85,41,29.94,29.71,12,2,12,4.97
2013-5-31,73.6,55.7,42.3,55.8,41.5,35.3,98,64,30,30.03,29.94,10,2,10,0.00
2013-6-1,77.4,53.6,46.2,50.0,45.3,39.9,93,78,30,29.94,29.71,13,2,13,4.97
2013-6-2,73.6,55.5,48.7,50.7,45.9,39.0,94,73,33,29.79,29.71,17,3,17,0.00